Time;durP1;ratioP1;P1;durP2;ratioP2;P2;SDS_P1;SDS_P2;PMS_P1;PMS_P2;Temp;Humidity;BMP_temperature;BMP_pressure;BME280_temperature;BME280_humidity;BME280_pressure;Samples;Min_cycle;Max_cycle;Signal;HPM_P1;HPM_P2
2022/12/11 00:00:40;;;;;;;3.35;2.80;;;17.70;57.30;;;;;;4991677;28;20292;-69
2022/12/11 00:03:06;;;;;;;2.72;2.50;;;17.60;57.20;;;;;;4976590;28;20705;-69
2022/12/11 00:05:32;;;;;;;4.78;2.75;;;17.70;57.30;;;;;;4977804;28;20189;-69
2022/12/11 00:07:58;;;;;;;3.83;2.72;;;17.60;57.20;;;;;;4978082;28;20224;-69
2022/12/11 00:10:24;;;;;;;3.45;2.90;;;17.70;57.30;;;;;;4991242;28;20217;-68
2022/12/11 00:12:50;;;;;;;3.53;2.70;;;17.70;57.40;;;;;;4967195;28;20190;-73
2022/12/11 00:15:16;;;;;;;3.88;2.97;;;17.70;57.30;;;;;;4956320;28;20225;-68
2022/12/11 00:17:42;;;;;;;2.83;2.40;;;17.70;57.30;;;;;;4955812;28;20217;-68
2022/12/11 00:20:08;;;;;;;2.97;2.33;;;17.70;57.30;;;;;;4955604;28;20226;-67
2022/12/11 00:22:34;;;;;;;3.10;2.90;;;17.70;57.30;;;;;;4955914;28;20270;-69
2022/12/11 00:25:00;;;;;;;2.65;2.45;;;17.60;57.80;;;;;;4955978;29;20265;-69
2022/12/11 00:27:26;;;;;;;2.90;2.70;;;17.60;57.20;;;;;;4955938;28;20224;-69
2022/12/11 00:29:51;;;;;;;3.10;2.80;;;17.60;57.20;;;;;;4955581;28;20206;-69
2022/12/11 00:32:17;;;;;;;2.60;2.40;;;17.70;57.30;;;;;;4956748;28;20265;-69
2022/12/11 00:34:43;;;;;;;2.80;2.55;;;17.60;57.20;;;;;;4955796;28;20201;-69
2022/12/11 00:37:09;;;;;;;3.00;2.55;;;17.60;57.30;;;;;;4955597;28;20178;-69
2022/12/11 00:39:38;;;;;;;4.30;2.60;;;17.60;57.20;;;;;;4955097;28;20262;-69
2022/12/11 00:42:06;;;;;;;3.83;2.38;;;17.60;57.10;;;;;;4955706;29;20179;-69
2022/12/11 00:44:32;;;;;;;2.65;2.45;;;17.60;57.20;;;;;;4955513;28;20233;-69
2022/12/11 00:46:58;;;;;;;2.78;2.58;;;17.60;57.20;;;;;;4955452;28;20221;-69
2022/12/11 00:49:24;;;;;;;2.92;2.63;;;17.60;57.20;;;;;;4955059;28;20272;-69
2022/12/11 00:51:50;;;;;;;2.55;2.35;;;17.70;57.20;;;;;;4955176;28;20580;-69
2022/12/11 00:54:15;;;;;;;2.53;2.33;;;17.70;57.30;;;;;;4955266;29;20187;-69
2022/12/11 00:56:41;;;;;;;2.63;2.42;;;17.60;57.10;;;;;;4955285;29;20702;-69
2022/12/11 00:59:07;;;;;;;2.90;2.53;;;17.60;57.20;;;;;;4955098;28;20218;-69
2022/12/11 01:01:33;;;;;;;3.08;2.78;;;17.60;57.20;;;;;;4955232;28;20210;-69
2022/12/11 01:03:59;;;;;;;2.40;2.20;;;17.60;57.10;;;;;;4955134;29;20182;-69
2022/12/11 01:06:27;;;;;;;3.40;2.50;;;17.60;57.20;;;;;;4955303;28;20198;-69
2022/12/11 01:11:41;;;;;;;3.00;2.67;;;17.60;57.10;;;;;;4955106;29;20189;-69
2022/12/11 01:14:09;;;;;;;3.72;2.83;;;17.60;57.10;;;;;;4955040;28;20182;-69
2022/12/11 01:16:35;;;;;;;2.67;2.47;;;17.60;57.10;;;;;;4956371;28;20688;-69
2022/12/11 01:19:02;;;;;;;2.50;2.30;;;17.60;57.10;;;;;;4954839;28;20250;-69
2022/12/11 01:21:27;;;;;;;2.70;2.50;;;17.60;57.10;;;;;;4954527;28;20209;-69
2022/12/11 01:23:53;;;;;;;2.88;2.33;;;17.60;57.00;;;;;;4955260;28;20187;-68
2022/12/11 01:26:19;;;;;;;3.50;2.60;;;17.60;57.10;;;;;;4954681;28;20186;-69
2022/12/11 01:28:49;;;;;;;2.50;2.30;;;17.60;57.00;;;;;;4954553;28;20194;-69
2022/12/11 01:31:18;;;;;;;2.38;2.17;;;17.60;57.00;;;;;;4954697;29;20590;-68
2022/12/11 01:33:44;;;;;;;2.53;2.25;;;17.60;57.10;;;;;;4954494;28;20193;-69
2022/12/11 01:36:15;;;;;;;2.50;2.30;;;17.60;57.00;;;;;;4954714;28;20273;-68
2022/12/11 01:38:41;;;;;;;3.35;2.60;;;17.60;57.00;;;;;;4954497;29;20241;-69
2022/12/11 01:41:08;;;;;;;2.60;2.40;;;17.60;57.10;;;;;;4954091;28;20209;-68
2022/12/11 01:43:53;;;;;;;2.78;2.20;;;17.60;57.00;;;;;;4954320;28;20186;-69
2022/12/11 01:46:19;;;;;;;2.67;2.47;;;17.60;57.00;;;;;;4954667;28;20182;-69
2022/12/11 01:48:45;;;;;;;2.42;2.00;;;17.60;57.00;;;;;;4954242;28;20682;-69
2022/12/11 01:51:11;;;;;;;2.30;2.10;;;17.60;56.90;;;;;;4954339;28;20214;-68
2022/12/11 01:53:43;;;;;;;3.35;2.38;;;17.60;57.00;;;;;;4954113;28;20226;-69
2022/12/11 01:56:10;;;;;;;2.72;2.15;;;17.60;56.90;;;;;;4955338;29;20232;-69
2022/12/11 01:58:50;;;;;;;2.50;2.30;;;17.60;57.00;;;;;;4954052;28;20226;-69
2022/12/11 02:01:44;;;;;;;2.53;2.33;;;17.60;57.00;;;;;;4953477;28;20244;-68
2022/12/11 02:04:14;;;;;;;2.28;2.08;;;17.60;56.90;;;;;;4954158;29;20163;-69
2022/12/11 02:06:45;;;;;;;2.60;2.40;;;17.60;56.90;;;;;;4953896;28;20197;-69
2022/12/11 02:09:16;;;;;;;2.53;2.33;;;17.60;57.00;;;;;;4953971;28;20218;-69
2022/12/11 02:11:53;;;;;;;2.30;2.20;;;17.60;56.90;;;;;;4953718;29;20198;-69
2022/12/11 02:15:04;;;;;;;2.72;2.53;;;17.60;56.90;;;;;;4953789;28;20249;-69
2022/12/11 02:18:15;;;;;;;2.30;2.20;;;17.60;57.00;;;;;;4954254;29;20289;-69
2022/12/11 02:20:55;;;;;;;2.28;2.08;;;17.60;57.20;;;;;;4954387;28;20231;-69
2022/12/11 02:23:50;;;;;;;2.55;2.35;;;17.60;56.90;;;;;;4953707;29;20171;-69
2022/12/11 02:26:54;;;;;;;2.20;2.00;;;17.60;56.90;;;;;;4953624;29;20190;-69
2022/12/11 02:29:35;;;;;;;2.85;2.20;;;17.60;56.80;;;;;;4953413;29;20193;-69
2022/12/11 02:32:42;;;;;;;2.55;2.08;;;17.60;56.90;;;;;;4953293;29;20179;-69
2022/12/11 02:35:24;;;;;;;2.67;2.10;;;17.60;56.90;;;;;;4954280;29;20217;-69
2022/12/11 02:38:06;;;;;;;2.60;2.40;;;17.60;56.90;;;;;;4953744;29;20182;-69
2022/12/11 02:40:38;;;;;;;2.17;1.98;;;17.60;56.80;;;;;;4953346;28;20232;-68
2022/12/11 02:43:10;;;;;;;3.28;2.10;;;17.60;56.90;;;;;;4953840;28;20203;-69
2022/12/11 02:45:39;;;;;;;2.60;2.40;;;17.60;56.90;;;;;;4953354;28;20228;-69
2022/12/11 02:48:08;;;;;;;2.50;2.30;;;17.60;56.90;;;;;;4970784;28;20196;-69
2022/12/11 02:50:41;;;;;;;2.20;2.08;;;17.50;56.80;;;;;;4988615;28;20233;-68
2022/12/11 02:53:11;;;;;;;3.03;2.20;;;17.60;56.80;;;;;;4988676;28;20198;-69
2022/12/11 02:55:40;;;;;;;2.50;2.30;;;17.60;56.90;;;;;;4972338;28;20217;-69
2022/12/11 02:58:15;;;;;;;2.38;2.20;;;17.50;56.80;;;;;;4972727;28;20203;-69
2022/12/11 03:00:40;;;;;;;2.15;2.05;;;17.60;56.80;;;;;;4972235;28;20204;-69
2022/12/11 03:03:06;;;;;;;2.50;2.30;;;17.60;56.90;;;;;;4972647;28;20240;-69
2022/12/11 03:05:32;;;;;;;2.70;2.50;;;17.60;56.80;;;;;;4972404;28;20189;-69
2022/12/11 03:07:58;;;;;;;2.78;2.58;;;17.50;56.70;;;;;;4972640;28;20704;-69
2022/12/11 03:10:24;;;;;;;3.17;2.13;;;17.60;56.80;;;;;;4988979;28;20213;-69
2022/12/11 03:12:54;;;;;;;2.17;1.98;;;17.60;56.70;;;;;;4991066;28;20224;-69
2022/12/11 03:15:32;;;;;;;2.58;2.38;;;17.60;56.70;;;;;;4992572;28;20177;-69
2022/12/11 03:18:46;;;;;;;2.42;2.22;;;17.60;56.70;;;;;;4992800;28;20182;-69
2022/12/11 03:21:42;;;;;;;2.00;1.90;;;17.60;56.60;;;;;;4992595;28;20213;-69
2022/12/11 03:24:29;;;;;;;2.50;2.30;;;17.60;56.70;;;;;;4976237;28;20241;-69
2022/12/11 03:27:04;;;;;;;2.40;2.20;;;17.50;56.70;;;;;;4992457;28;20170;-69
2022/12/11 03:29:39;;;;;;;2.58;2.38;;;17.60;56.70;;;;;;4992660;28;20185;-69
2022/12/11 03:32:30;;;;;;;2.40;2.20;;;17.60;56.60;;;;;;4992453;28;20182;-69
2022/12/11 03:35:13;;;;;;;2.25;2.05;;;17.60;56.60;;;;;;4992133;28;20178;-68
2022/12/11 03:37:42;;;;;;;2.50;2.30;;;17.60;56.60;;;;;;4976136;28;20201;-69
2022/12/11 03:40:17;;;;;;;2.58;2.38;;;17.60;56.60;;;;;;4976936;28;20225;-69
2022/12/11 03:42:49;;;;;;;2.22;2.00;;;17.60;56.60;;;;;;4977033;28;20165;-69
2022/12/11 03:45:17;;;;;;;2.65;2.45;;;17.60;56.60;;;;;;4992117;28;20224;-68
2022/12/11 03:47:46;;;;;;;2.22;2.10;;;17.60;56.60;;;;;;4992352;28;20177;-69
2022/12/11 03:50:16;;;;;;;2.72;2.53;;;17.60;56.60;;;;;;4975617;28;20210;-69
2022/12/11 03:52:45;;;;;;;2.58;2.38;;;17.60;56.60;;;;;;4991692;28;20189;-68
2022/12/11 03:55:15;;;;;;;2.55;2.35;;;17.60;56.60;;;;;;4991909;28;20276;-69
2022/12/11 03:57:41;;;;;;;2.58;2.20;;;17.60;56.60;;;;;;4991786;28;20213;-69
2022/12/11 04:00:13;;;;;;;2.30;2.10;;;17.60;56.60;;;;;;4991608;28;20256;-69
2022/12/11 04:02:40;;;;;;;2.25;2.05;;;17.60;56.60;;;;;;4977848;28;20213;-69
2022/12/11 04:05:07;;;;;;;2.47;2.30;;;17.60;56.70;;;;;;4991827;28;20212;-69
2022/12/11 04:07:32;;;;;;;2.08;1.90;;;17.60;56.60;;;;;;4991592;28;20669;-69
2022/12/11 04:09:59;;;;;;;2.38;2.20;;;17.60;56.70;;;;;;4991541;28;20303;-68
2022/12/11 04:12:25;;;;;;;2.40;2.20;;;17.60;56.70;;;;;;4991737;28;20281;-69
2022/12/11 04:15:02;;;;;;;2.22;2.03;;;17.70;56.80;;;;;;4975358;28;20266;-68
2022/12/11 04:25:49;;;;;;;1.98;1.88;;;17.60;56.60;;;;;;4991156;28;20186;-69
2022/12/11 04:28:15;;;;;;;2.15;1.95;;;17.60;56.70;;;;;;4991381;28;20205;-69
2022/12/11 04:30:48;;;;;;;1.95;1.85;;;17.60;56.80;;;;;;4993558;28;20303;-69
2022/12/11 04:33:14;;;;;;;2.50;2.30;;;17.60;56.70;;;;;;5011100;28;20191;-70
2022/12/11 04:35:40;;;;;;;2.08;1.90;;;17.60;56.60;;;;;;5010589;28;20193;-69
2022/12/11 04:38:05;;;;;;;2.13;2.03;;;17.60;56.70;;;;;;4994291;28;20212;-69
2022/12/11 04:40:31;;;;;;;2.22;2.03;;;17.60;56.60;;;;;;4994149;28;20220;-69
2022/12/11 04:42:57;;;;;;;1.95;1.85;;;17.60;57.20;;;;;;4994168;28;20243;-70
2022/12/11 04:45:22;;;;;;;2.22;2.05;;;17.60;56.60;;;;;;4995706;28;20181;-70
2022/12/11 04:47:48;;;;;;;2.28;2.08;;;17.50;56.60;;;;;;4977849;28;20185;-69
2022/12/11 04:50:15;;;;;;;3.35;1.90;;;17.50;56.50;;;;;;4994011;28;20200;-69
2022/12/11 04:52:42;;;;;;;2.13;2.00;;;17.50;56.50;;;;;;5010235;28;20201;-69
2022/12/11 04:55:09;;;;;;;2.00;1.90;;;17.50;56.50;;;;;;4994003;28;20173;-69
2022/12/11 04:57:35;;;;;;;1.85;1.75;;;17.50;56.50;;;;;;4993898;28;20567;-70
2022/12/11 05:00:01;;;;;;;2.17;2.08;;;17.50;56.50;;;;;;4993821;28;20688;-69
2022/12/11 05:02:26;;;;;;;1.98;1.88;;;17.50;56.50;;;;;;5010023;28;20193;-69
2022/12/11 05:04:52;;;;;;;1.88;1.77;;;17.50;56.50;;;;;;4993925;28;20189;-69
2022/12/11 05:07:18;;;;;;;2.38;2.17;;;17.50;56.50;;;;;;4995117;28;20187;-69
2022/12/11 05:09:44;;;;;;;2.20;2.10;;;17.50;56.40;;;;;;4977828;28;20299;-70
2022/12/11 05:12:09;;;;;;;1.85;1.75;;;17.50;56.40;;;;;;4993224;28;20203;-70
2022/12/11 05:14:35;;;;;;;2.10;2.00;;;17.50;56.30;;;;;;4993632;28;20193;-70
2022/12/11 05:17:01;;;;;;;2.20;2.10;;;17.50;56.30;;;;;;4993540;28;20193;-70
2022/12/11 05:19:26;;;;;;;2.20;2.00;;;17.50;56.30;;;;;;4993421;28;20212;-69
2022/12/11 05:21:52;;;;;;;2.17;2.05;;;17.50;56.30;;;;;;4994584;28;20185;-68
2022/12/11 05:24:18;;;;;;;2.28;2.08;;;17.50;56.30;;;;;;4993572;28;20197;-69
2022/12/11 05:26:44;;;;;;;1.88;1.77;;;17.50;56.30;;;;;;5009803;28;20257;-68
2022/12/11 05:29:10;;;;;;;1.90;1.80;;;17.50;56.20;;;;;;4993703;28;20191;-68
2022/12/11 05:31:35;;;;;;;1.90;1.80;;;17.50;56.10;;;;;;4993467;28;20205;-68
2022/12/11 05:34:02;;;;;;;2.20;2.00;;;17.50;56.20;;;;;;4992542;28;20223;-69
2022/12/11 05:36:32;;;;;;;1.90;1.77;;;17.50;56.10;;;;;;4993324;28;20181;-69
2022/12/11 05:39:00;;;;;;;1.98;1.88;;;17.50;56.10;;;;;;4993166;28;20215;-68
2022/12/11 05:41:29;;;;;;;1.98;1.88;;;17.50;56.20;;;;;;4976831;28;20213;-69
2022/12/11 05:43:55;;;;;;;2.08;1.88;;;17.50;56.10;;;;;;4993343;28;20197;-69
2022/12/11 05:46:24;;;;;;;2.72;2.53;;;17.50;56.00;;;;;;4993055;28;20204;-68
2022/12/11 05:48:54;;;;;;;1.85;1.75;;;17.50;56.10;;;;;;4994466;28;20185;-69
2022/12/11 05:51:21;;;;;;;1.95;1.85;;;17.50;56.00;;;;;;4992564;28;20227;-68
2022/12/11 05:53:48;;;;;;;2.05;1.95;;;17.50;56.00;;;;;;4994104;28;20195;-69
2022/12/11 05:56:19;;;;;;;2.50;2.30;;;17.50;56.00;;;;;;4992905;28;20181;-69
2022/12/11 05:58:48;;;;;;;1.77;1.67;;;17.50;56.00;;;;;;4993149;28;20232;-69
2022/12/11 06:01:19;;;;;;;2.20;2.00;;;17.50;55.90;;;;;;4992561;28;20213;-69
2022/12/11 06:03:46;;;;;;;1.98;1.88;;;17.50;55.90;;;;;;4992896;28;20199;-69
2022/12/11 06:06:12;;;;;;;2.22;2.03;;;17.50;55.90;;;;;;4992681;28;20232;-68
2022/12/11 06:08:38;;;;;;;1.92;1.83;;;17.50;55.90;;;;;;4992569;28;20615;-69
2022/12/11 06:11:04;;;;;;;2.15;2.05;;;17.40;55.80;;;;;;4992614;28;20263;-68
2022/12/11 06:13:30;;;;;;;2.30;2.08;;;17.40;55.70;;;;;;4982646;28;20221;-68
2022/12/11 06:16:04;;;;;;;2.03;1.90;;;17.40;55.70;;;;;;4989345;28;20232;-69
2022/12/11 06:18:30;;;;;;;2.05;1.88;;;17.40;55.80;;;;;;4973003;28;20217;-69
2022/12/11 06:20:56;;;;;;;1.83;1.73;;;17.40;55.70;;;;;;4974007;28;20224;-68
2022/12/11 06:23:22;;;;;;;2.05;1.85;;;17.40;55.60;;;;;;4972956;28;20182;-68
2022/12/11 06:25:48;;;;;;;1.70;1.60;;;17.40;55.50;;;;;;4972910;28;20197;-69
2022/12/11 06:28:13;;;;;;;1.88;1.77;;;17.40;55.60;;;;;;4973248;28;20189;-69
2022/12/11 06:30:39;;;;;;;1.83;1.73;;;17.40;55.60;;;;;;4973162;28;20582;-69
2022/12/11 06:33:05;;;;;;;2.22;2.10;;;17.40;55.60;;;;;;4972728;28;20197;-69
2022/12/11 06:35:31;;;;;;;1.88;1.77;;;17.40;56.10;;;;;;4972899;28;20182;-69
2022/12/11 06:37:58;;;;;;;2.05;1.85;;;17.40;55.40;;;;;;4972698;28;20182;-69
2022/12/11 06:40:24;;;;;;;2.10;2.00;;;17.40;55.50;;;;;;4972736;28;20253;-68
2022/12/11 06:42:49;;;;;;;2.40;2.20;;;17.40;55.40;;;;;;4988704;28;20223;-69
2022/12/11 06:45:15;;;;;;;2.28;2.08;;;17.40;55.40;;;;;;4988481;28;20209;-69
2022/12/11 06:47:41;;;;;;;2.17;1.95;;;17.40;55.40;;;;;;4972853;28;20189;-69
2022/12/11 06:50:07;;;;;;;2.42;2.22;;;17.40;55.40;;;;;;4972482;28;20212;-69
2022/12/11 06:52:33;;;;;;;2.40;2.30;;;17.40;55.40;;;;;;4972477;28;20191;-69
2022/12/11 06:54:59;;;;;;;2.40;2.20;;;17.40;55.40;;;;;;4973745;28;20173;-68
2022/12/11 06:57:25;;;;;;;2.38;2.22;;;17.40;55.40;;;;;;4989061;28;20551;-69
2022/12/11 06:59:50;;;;;;;2.30;2.10;;;17.40;55.40;;;;;;4972754;28;20279;-69
2022/12/11 07:02:19;;;;;;;2.40;2.20;;;17.40;55.40;;;;;;4988811;28;20268;-68
2022/12/11 07:04:45;;;;;;;2.03;1.92;;;17.40;55.40;;;;;;4972361;28;20192;-68
2022/12/11 07:07:11;;;;;;;2.65;2.45;;;17.40;55.30;;;;;;4988502;28;20181;-69
2022/12/11 07:09:40;;;;;;;2.75;2.55;;;17.40;55.30;;;;;;4972164;28;20213;-69
2022/12/11 07:12:06;;;;;;;2.33;2.13;;;17.40;55.30;;;;;;4972436;28;20194;-69
2022/12/11 07:14:32;;;;;;;3.80;2.50;;;17.40;55.20;;;;;;4973494;28;20185;-69
2022/12/11 07:16:58;;;;;;;2.90;2.60;;;17.40;55.30;;;;;;4971978;28;20280;-68
2022/12/11 07:19:25;;;;;;;2.90;2.70;;;17.40;55.20;;;;;;4972186;28;20216;-69
2022/12/11 07:21:51;;;;;;;2.58;2.38;;;17.40;55.20;;;;;;4972052;28;20190;-69
2022/12/11 07:24:17;;;;;;;2.85;2.65;;;17.40;55.20;;;;;;4988155;28;20188;-69
2022/12/11 07:26:43;;;;;;;3.10;2.88;;;17.40;55.20;;;;;;4988260;28;20186;-69
2022/12/11 07:29:09;;;;;;;2.72;2.53;;;17.30;55.10;;;;;;4972025;28;20197;-69
2022/12/11 07:31:35;;;;;;;3.70;3.40;;;17.40;55.20;;;;;;4971860;28;20209;-69
2022/12/11 07:34:05;;;;;;;3.50;3.20;;;17.30;55.00;;;;;;4988587;28;20198;-69
2022/12/11 07:36:31;;;;;;;3.17;2.88;;;17.40;55.20;;;;;;4972105;28;20185;-69
2022/12/11 07:38:59;;;;;;;2.85;2.65;;;17.40;55.10;;;;;;4982774;28;20206;-70
2022/12/11 07:41:30;;;;;;;3.15;2.90;;;17.40;55.10;;;;;;4988974;28;20213;-68
2022/12/11 07:44:00;;;;;;;3.53;3.22;;;17.40;55.20;;;;;;4980668;28;20170;-69
2022/12/11 07:46:29;;;;;;;3.13;2.92;;;17.30;55.00;;;;;;4983237;28;20182;-69
2022/12/11 07:48:55;;;;;;;3.42;3.13;;;17.40;55.10;;;;;;4987400;28;20186;-69
2022/12/11 07:51:28;;;;;;;3.65;3.35;;;17.30;54.80;;;;;;4982256;28;20235;-69
2022/12/11 07:53:58;;;;;;;3.70;3.40;;;17.30;54.90;;;;;;4973105;28;20216;-69
2022/12/11 07:56:24;;;;;;;3.72;3.42;;;17.30;54.90;;;;;;4982394;28;20572;-69
2022/12/11 07:58:50;;;;;;;3.60;3.30;;;17.30;54.80;;;;;;4980039;28;20220;-68
2022/12/11 08:01:22;;;;;;;4.30;3.90;;;17.30;54.70;;;;;;4997638;28;20208;-69
2022/12/11 08:03:49;;;;;;;3.42;3.13;;;17.30;54.70;;;;;;5011230;28;20192;-69
2022/12/11 08:06:16;;;;;;;4.20;3.80;;;17.30;54.70;;;;;;4990450;28;20257;-69
2022/12/11 08:08:42;;;;;;;3.72;3.42;;;17.30;54.60;;;;;;4965455;28;20190;-69
2022/12/11 08:11:12;;;;;;;3.65;3.35;;;17.30;54.70;;;;;;4956184;28;20234;-69
2022/12/11 08:13:38;;;;;;;4.18;3.78;;;17.30;54.80;;;;;;4978876;28;20196;-69
2022/12/11 08:16:09;;;;;;;3.58;3.30;;;17.30;54.70;;;;;;4991518;28;20647;-69
2022/12/11 08:18:36;;;;;;;3.92;3.63;;;17.30;54.70;;;;;;4975712;28;20225;-69
2022/12/11 08:21:27;;;;;;;3.58;3.30;;;17.30;54.70;;;;;;4974886;28;20201;-69
2022/12/11 08:23:53;;;;;;;4.47;4.07;;;17.30;54.70;;;;;;4975000;28;20210;-69
2022/12/11 08:26:27;;;;;;;4.10;3.78;;;17.30;54.70;;;;;;4975451;28;20193;-69
2022/12/11 08:28:53;;;;;;;4.57;4.18;;;17.30;54.60;;;;;;4975090;28;20194;-69
2022/12/11 08:31:20;;;;;;;4.97;4.50;;;17.30;54.60;;;;;;4991005;28;20221;-68
2022/12/11 08:33:48;;;;;;;5.15;4.75;;;17.30;54.50;;;;;;4991080;28;20193;-68
2022/12/11 08:36:17;;;;;;;5.97;5.40;;;17.30;54.60;;;;;;4976828;28;20190;-68
2022/12/11 08:38:45;;;;;;;5.60;5.10;;;17.30;54.60;;;;;;4983015;28;20226;-69
2022/12/11 08:41:21;;;;;;;5.97;5.38;;;17.30;54.60;;;;;;4982558;28;20731;-69
2022/12/11 08:43:48;;;;;;;5.60;5.10;;;17.40;54.60;;;;;;4976501;28;20186;-69
2022/12/11 08:46:14;;;;;;;6.05;5.45;;;17.30;54.50;;;;;;4974739;28;20189;-69
2022/12/11 08:48:42;;;;;;;6.22;5.60;;;17.40;54.60;;;;;;4958658;28;20217;-69
2022/12/11 08:51:13;;;;;;;5.70;5.20;;;17.40;54.60;;;;;;4979157;28;20204;-68
2022/12/11 08:53:39;;;;;;;6.35;5.75;;;17.40;54.70;;;;;;5010668;28;20184;-69
2022/12/11 08:56:10;;;;;;;6.32;5.70;;;17.40;54.70;;;;;;4993864;28;20189;-69
2022/12/11 08:58:36;;;;;;;5.20;4.80;;;17.40;54.60;;;;;;4993974;28;20236;-69
2022/12/11 09:01:11;;;;;;;6.07;5.30;;;17.40;54.50;;;;;;4988341;28;20208;-68
2022/12/11 09:03:38;;;;;;;5.63;5.13;;;17.40;54.50;;;;;;4990845;28;20194;-68
2022/12/11 09:06:11;;;;;;;6.50;5.90;;;17.40;54.50;;;;;;5010178;28;20193;-69
2022/12/11 09:08:37;;;;;;;6.25;5.65;;;17.40;54.50;;;;;;4993696;28;20192;-69
2022/12/11 09:11:11;;;;;;;6.18;5.57;;;17.40;54.60;;;;;;4974577;28;20264;-68
2022/12/11 09:13:38;;;;;;;5.60;5.10;;;17.40;54.60;;;;;;4981248;28;20264;-69
2022/12/11 09:16:08;;;;;;;5.85;5.32;;;17.50;54.60;;;;;;4974226;28;20188;-69
2022/12/11 09:18:35;;;;;;;5.75;5.10;;;17.50;54.60;;;;;;4974098;28;20214;-69
2022/12/11 09:21:04;;;;;;;6.13;5.55;;;17.50;54.80;;;;;;4989748;28;20294;-69
2022/12/11 09:23:30;;;;;;;6.03;5.47;;;17.50;54.80;;;;;;4989799;28;20178;-69
2022/12/11 09:25:57;;;;;;;5.80;5.30;;;17.50;54.80;;;;;;4960284;28;20658;-69
2022/12/11 09:28:23;;;;;;;5.55;5.05;;;17.50;54.80;;;;;;4974277;28;20186;-69
2022/12/11 09:30:49;;;;;;;5.38;4.93;;;17.50;54.80;;;;;;4979011;28;20245;-69
2022/12/11 09:33:15;;;;;;;5.28;4.78;;;17.50;54.80;;;;;;4979088;28;20169;-69
2022/12/11 09:35:42;;;;;;;5.50;5.00;;;17.50;54.80;;;;;;4994496;28;20256;-69
2022/12/11 09:38:08;;;;;;;4.97;4.57;;;17.50;54.80;;;;;;4983210;28;20197;-69
2022/12/11 09:40:42;;;;;;;5.47;4.97;;;17.50;54.80;;;;;;5007255;23;20256;-69
2022/12/11 09:43:29;;;;;;;5.55;5.05;;;17.50;54.80;;;;;;5012197;28;20251;-69
2022/12/11 09:45:55;;;;;;;5.25;4.85;;;17.50;54.90;;;;;;5013055;28;20173;-69
2022/12/11 09:48:25;;;;;;;5.38;4.93;;;17.50;54.80;;;;;;5012721;28;20587;-69
2022/12/11 09:50:53;;;;;;;5.45;4.95;;;17.50;54.80;;;;;;5012456;28;20228;-69
2022/12/11 09:53:31;;;;;;;5.35;4.88;;;17.50;54.80;;;;;;5012407;28;20188;-69
2022/12/11 09:56:17;;;;;;;5.00;4.60;;;17.50;54.90;;;;;;5012528;28;20180;-69
2022/12/11 09:59:03;;;;;;;5.30;4.80;;;17.50;54.90;;;;;;4996125;28;20199;-69
2022/12/11 10:02:02;;;;;;;5.13;4.72;;;17.50;54.90;;;;;;4989029;28;20754;-69
2022/12/11 10:04:54;;;;;;;5.45;4.95;;;17.50;54.90;;;;;;5012272;28;20196;-69
2022/12/11 10:07:42;;;;;;;4.88;4.47;;;17.50;54.80;;;;;;4992949;28;20196;-69
2022/12/11 10:10:41;;;;;;;5.18;4.78;;;17.40;54.80;;;;;;4995622;28;20199;-69
2022/12/11 10:13:23;;;;;;;5.10;4.60;;;17.50;54.80;;;;;;4998078;28;20189;-69
2022/12/11 10:16:06;;;;;;;5.30;4.80;;;17.50;54.90;;;;;;5012101;28;20212;-69
2022/12/11 10:18:32;;;;;;;5.65;5.15;;;17.40;54.70;;;;;;5009814;28;20218;-69
2022/12/11 10:21:01;;;;;;;5.32;4.82;;;17.50;54.80;;;;;;5011738;28;20216;-69
2022/12/11 10:23:37;;;;;;;5.40;4.93;;;17.50;54.80;;;;;;5012166;28;20754;-69
2022/12/11 10:26:19;;;;;;;5.30;4.80;;;17.50;54.80;;;;;;5014146;28;20179;-69
2022/12/11 10:28:45;;;;;;;5.45;4.95;;;17.50;54.80;;;;;;5011876;28;20250;-69
2022/12/11 10:31:24;;;;;;;5.22;4.78;;;17.50;54.80;;;;;;4995290;28;20622;-68
2022/12/11 10:34:12;;;;;;;4.97;4.57;;;17.50;54.90;;;;;;5011850;28;20188;-69
2022/12/11 10:36:41;;;;;;;4.88;4.47;;;17.50;54.80;;;;;;4992019;28;20267;-69
2022/12/11 10:39:21;;;;;;;4.80;4.40;;;17.50;55.40;;;;;;4995357;28;20205;-69
2022/12/11 10:41:50;;;;;;;5.32;4.82;;;17.50;54.70;;;;;;5027977;28;20216;-69
2022/12/11 10:44:18;;;;;;;5.10;4.65;;;17.50;54.80;;;;;;5011724;28;20187;-69
2022/12/11 10:46:47;;;;;;;5.07;4.68;;;17.50;54.80;;;;;;5028187;28;20184;-69
2022/12/11 10:49:30;;;;;;;5.05;4.65;;;17.50;54.80;;;;;;5002137;28;20188;-69
2022/12/11 10:52:00;;;;;;;5.05;4.57;;;17.50;54.80;;;;;;4995159;28;20209;-70
2022/12/11 10:54:40;;;;;;;4.50;4.10;;;17.50;54.80;;;;;;4995400;28;20274;-69
2022/12/11 10:57:10;;;;;;;5.05;4.57;;;17.50;54.80;;;;;;5002480;28;20187;-69
2022/12/11 10:59:44;;;;;;;4.30;3.90;;;17.50;54.80;;;;;;5018559;28;20214;-69
2022/12/11 11:02:39;;;;;;;5.68;4.40;;;17.60;54.90;;;;;;4994683;28;20294;-69
2022/12/11 11:05:16;;;;;;;4.80;4.40;;;17.60;55.20;;;;;;5010951;28;20223;-69
2022/12/11 11:07:42;;;;;;;4.65;4.25;;;17.60;55.20;;;;;;4995211;28;20213;-69
2022/12/11 11:10:12;;;;;;;4.57;4.18;;;17.60;55.20;;;;;;4992536;28;20187;-69
2022/12/11 11:12:44;;;;;;;4.00;3.70;;;17.60;55.30;;;;;;5011160;28;20215;-69
2022/12/11 11:15:26;;;;;;;4.20;3.80;;;17.60;55.30;;;;;;4994896;28;20211;-69
2022/12/11 11:17:56;;;;;;;4.28;3.88;;;17.60;55.40;;;;;;4975541;28;20188;-69
2022/12/11 11:20:27;;;;;;;4.68;4.28;;;17.60;55.20;;;;;;4996946;28;20251;-68
2022/12/11 11:23:00;;;;;;;4.38;3.97;;;17.60;55.20;;;;;;4991602;28;20231;-69
2022/12/11 11:25:29;;;;;;;3.95;3.65;;;17.60;55.20;;;;;;4996199;28;20204;-69
2022/12/11 11:28:06;;;;;;;4.25;3.85;;;17.60;55.20;;;;;;4991843;28;20238;-71
2022/12/11 11:30:39;;;;;;;4.18;3.40;;;17.60;55.20;;;;;;4996883;28;20212;-69
2022/12/11 11:33:18;;;;;;;3.95;3.55;;;17.60;55.20;;;;;;5012474;28;20192;-68
2022/12/11 11:36:06;;;;;;;3.72;3.42;;;17.60;55.20;;;;;;5021134;28;20176;-69
2022/12/11 11:39:01;;;;;;;4.13;3.83;;;17.60;55.20;;;;;;5015056;28;20184;-69
2022/12/11 11:41:54;;;;;;;3.25;3.03;;;17.60;55.20;;;;;;4997706;28;20255;-69
2022/12/11 11:44:46;;;;;;;3.30;3.00;;;17.60;55.20;;;;;;5015016;28;20188;-69
2022/12/11 11:47:40;;;;;;;4.03;3.70;;;17.60;55.20;;;;;;5016220;28;20187;-69
2022/12/11 11:50:17;;;;;;;3.70;3.40;;;17.60;55.20;;;;;;4998652;28;20611;-69
2022/12/11 11:52:57;;;;;;;3.55;3.25;;;17.60;55.20;;;;;;5015037;28;20171;-69
2022/12/11 11:55:43;;;;;;;3.33;3.03;;;17.60;55.20;;;;;;5031478;28;20188;-69
2022/12/11 11:58:18;;;;;;;3.25;3.03;;;17.60;55.20;;;;;;5014886;28;20549;-69
2022/12/11 12:00:44;;;;;;;3.60;3.30;;;17.60;55.20;;;;;;4998402;28;20334;-68
2022/12/11 12:03:15;;;;;;;3.20;2.95;;;17.60;55.20;;;;;;5014583;28;20266;-69
2022/12/11 12:05:56;;;;;;;3.40;3.10;;;17.60;55.20;;;;;;4998491;28;20255;-69
2022/12/11 12:08:43;;;;;;;3.53;3.22;;;17.60;55.20;;;;;;5014450;28;20674;-69
2022/12/11 12:11:16;;;;;;;3.20;2.90;;;17.60;55.20;;;;;;4998353;28;20208;-69
2022/12/11 12:13:53;;;;;;;3.50;3.08;;;17.60;55.10;;;;;;5031173;28;20278;-69
2022/12/11 12:17:25;;;;;;;3.33;3.03;;;17.60;55.20;;;;;;5015685;28;20203;-68
2022/12/11 12:20:15;;;;;;;3.45;3.15;;;17.60;55.20;;;;;;5005625;28;20219;-69
2022/12/11 12:23:20;;;;;;;2.95;2.75;;;17.60;55.10;;;;;;5031023;28;20692;-69
2022/12/11 12:26:13;;;;;;;3.25;2.95;;;17.60;55.70;;;;;;5014456;28;20176;-70
2022/12/11 12:29:07;;;;;;;3.00;2.80;;;17.60;55.20;;;;;;4997972;28;20183;-69
2022/12/11 12:32:13;;;;;;;3.40;3.10;;;17.70;55.20;;;;;;5030544;28;20692;-69
2022/12/11 12:34:48;;;;;;;2.88;2.67;;;17.60;55.10;;;;;;5014202;28;20644;-69
2022/12/11 12:37:57;;;;;;;3.55;2.80;;;17.60;55.20;;;;;;5030787;28;20184;-69
2022/12/11 12:40:31;;;;;;;3.05;2.58;;;17.60;55.20;;;;;;4997624;28;20219;-69
2022/12/11 12:43:35;;;;;;;3.17;2.75;;;17.60;55.20;;;;;;5013935;28;20195;-69
2022/12/11 12:46:21;;;;;;;3.25;2.95;;;17.60;55.20;;;;;;5030658;28;20184;-70
2022/12/11 12:48:50;;;;;;;2.70;2.50;;;17.60;55.20;;;;;;5030286;28;20188;-69
2022/12/11 12:51:17;;;;;;;2.80;2.55;;;17.60;55.10;;;;;;5014925;28;20204;-69
2022/12/11 12:54:03;;;;;;;3.67;2.90;;;17.60;55.20;;;;;;5030061;28;20176;-69
2022/12/11 12:56:32;;;;;;;2.53;2.33;;;17.60;55.20;;;;;;5013955;28;20172;-69
2022/12/11 12:58:58;;;;;;;2.60;2.40;;;17.60;55.20;;;;;;4997369;28;20242;-69
2022/12/11 13:01:27;;;;;;;2.50;2.30;;;17.60;55.20;;;;;;5014774;28;20668;-68
2022/12/11 13:04:05;;;;;;;3.10;2.80;;;17.70;55.30;;;;;;5013786;28;20189;-69
2022/12/11 13:06:44;;;;;;;2.40;2.20;;;17.60;55.20;;;;;;5013776;28;20185;-68
2022/12/11 13:09:25;;;;;;;2.83;2.63;;;17.60;55.10;;;;;;5012077;28;20639;-69
2022/12/11 13:11:56;;;;;;;2.70;2.50;;;17.60;55.10;;;;;;4997193;28;20212;-69
2022/12/11 13:14:29;;;;;;;2.50;2.30;;;17.60;55.20;;;;;;5013785;28;20172;-70
2022/12/11 13:17:20;;;;;;;2.40;2.30;;;17.60;55.20;;;;;;5013631;28;20710;-69
2022/12/11 13:19:49;;;;;;;2.72;2.53;;;17.60;55.10;;;;;;5013457;28;20223;-69
2022/12/11 13:22:14;;;;;;;2.40;2.20;;;17.60;55.20;;;;;;4994813;28;20647;-69
2022/12/11 13:24:50;;;;;;;2.20;2.10;;;17.70;55.30;;;;;;4994741;28;20184;-69